^^
Station Historical Data
Daily Summary for February 14, 2018 Units:  Both    English   Metric
« Previous Day
Next Day »
Daily Weekly Monthly Yearly Custom
  High: Low: Average:
Temperature: TemperatureF °F /  -17.8 °C 36.7 °F /  2.6 °C 51.5 °F /  10.8 °C
Dew Point: DewpointF °F /  -17.8 °C 20.4 °F /  -6.4 °C 24.3 °F /  -4.3 °C
Humidity: Humidity% 24% 35%
Wind Speed: WindSpeedMPHmph /  0km/h - 7.7mph /  12.4km/h
Wind Gust: WindSpeedGustMPHmph /  0km/h - -
Wind- - WSW
Pressure: PressureIn in /  0 hPa 29.54 in /  1000.2 hPa -
Precipitation: 0.00 in /  0 mm    
Historical Graphs
 
 
Tabular Data for February 14, 2018
Time Temperature Dew Point Pressure Wind Wind Speed Wind Gust Humidity Rainfall Rate (Hourly) solar Conditions
TemperatureF °F /  -17.8 °C DewpointF °F /  -17.8 °C PressureInin /  0hPa Calm     Humidity% HourlyPrecipInin /  0mm SoftwareType W/m2 Conditions
00:03 36.7 °F /  2.6 °C 24.1 °F /  -4.4 °C 29.96in /  1014.4hPa SSE 3.5mph /  5.6km/h 3.5mph /  5.6km/h 60% 0.00in /  0mm WeatherDisplay:10.37 W/m2 RA
00:08 37.1 °F /  2.8 °C 24.1 °F /  -4.4 °C 29.96in /  1014.4hPa SSE 4.0mph /  6.4km/h 4.0mph /  6.4km/h 59% 0.00in /  0mm WeatherDisplay:10.37 W/m2 RA
00:13 38.0 °F /  3.3 °C 24.1 °F /  -4.4 °C 29.95in /  1014.1hPa Calm     57% 0.00in /  0mm WeatherDisplay:10.37 W/m2 CLR
00:18 38.3 °F /  3.5 °C 24.0 °F /  -4.4 °C 29.94in /  1013.8hPa SSE 1.2mph /  1.9km/h 1.2mph /  1.9km/h 56% 0.00in /  0mm WeatherDisplay:10.37 W/m2 CLR
00:23 39.6 °F /  4.2 °C 23.9 °F /  -4.5 °C 29.94in /  1013.8hPa South 6.0mph /  9.7km/h 6.0mph /  9.7km/h 53% 0.00in /  0mm WeatherDisplay:10.37 W/m2 CLR
00:28 41.1 °F /  5.1 °C 24.3 °F /  -4.3 °C 29.93in /  1013.4hPa South 3.0mph /  4.8km/h 3.0mph /  4.8km/h 51% 0.00in /  0mm WeatherDisplay:10.37 W/m2 CLR
00:33 41.2 °F /  5.1 °C 23.9 °F /  -4.5 °C 29.93in /  1013.4hPa SSW 3.5mph /  5.6km/h 3.5mph /  5.6km/h 50% 0.00in /  0mm WeatherDisplay:10.37 W/m2 CLR
00:38 41.3 °F /  5.2 °C 24.0 °F /  -4.4 °C 29.92in /  1013.1hPa Calm     50% 0.00in /  0mm WeatherDisplay:10.37 W/m2 CLR
00:43 40.9 °F /  4.9 °C 24.1 °F /  -4.4 °C 29.93in /  1013.4hPa SW 3.5mph /  5.6km/h 3.5mph /  5.6km/h 51% 0.00in /  0mm WeatherDisplay:10.37 W/m2 CLR
00:48 40.4 °F /  4.7 °C 23.7 °F /  -4.6 °C 29.92in /  1013.1hPa SW 3.0mph /  4.8km/h 3.0mph /  4.8km/h 51% 0.00in /  0mm WeatherDisplay:10.37 W/m2 CLR
00:53 39.2 °F /  4 °C 23.5 °F /  -4.7 °C 29.93in /  1013.4hPa West 3.0mph /  4.8km/h 3.0mph /  4.8km/h 53% 0.00in /  0mm WeatherDisplay:10.37 W/m2 CLR
00:58 38.6 °F /  3.7 °C 23.8 °F /  -4.6 °C 29.93in /  1013.4hPa WNW 1.2mph /  1.9km/h 1.2mph /  1.9km/h 55% 0.00in /  0mm WeatherDisplay:10.37 W/m2 CLR
01:03 38.3 °F /  3.5 °C 24.0 °F /  -4.4 °C 29.86in /  1011.1hPa SE 3.5mph /  5.6km/h 3.5mph /  5.6km/h 56% 0.00in /  0mm WeatherDisplay:10.37 W/m2 CLR
01:08 38.3 °F /  3.5 °C 24.0 °F /  -4.4 °C 29.86in /  1011.1hPa West 1.2mph /  1.9km/h   56% 0.00in /  0mm WeatherDisplay:10.37 W/m2 CLR
01:13 39.0 °F /  3.9 °C 22.8 °F /  -5.1 °C 29.87in /  1011.4hPa West 3.5mph /  5.6km/h 3.5mph /  5.6km/h 52% 0.00in /  0mm WeatherDisplay:10.37 W/m2 CLR
01:18 39.8 °F /  4.3 °C 23.6 °F /  -4.7 °C 29.85in /  1010.7hPa West 2.3mph /  3.7km/h 2.3mph /  3.7km/h 52% 0.00in /  0mm WeatherDisplay:10.37 W/m2 CLR
01:23 40.8 °F /  4.9 °C 23.6 °F /  -4.7 °C 29.86in /  1011.1hPa West 2.0mph /  3.2km/h 2.0mph /  3.2km/h 50% 0.00in /  0mm WeatherDisplay:10.37 W/m2 CLR
01:28 42.4 °F /  5.8 °C 23.1 °F /  -4.9 °C 29.84in /  1010.4hPa WSW 11.5mph /  18.5km/h 11.5mph /  18.5km/h 46% 0.00in /  0mm WeatherDisplay:10.37 W/m2 CLR
01:33 45.0 °F /  7.2 °C 23.8 °F /  -4.6 °C 29.83in /  1010hPa WSW 6.9mph /  11.1km/h 6.9mph /  11.1km/h 43% 0.00in /  0mm WeatherDisplay:10.37 W/m2 CLR
01:38 46.5 °F /  8.1 °C 23.4 °F /  -4.8 °C 29.82in /  1009.7hPa WSW 11.5mph /  18.5km/h 11.5mph /  18.5km/h 40% 0.00in /  0mm WeatherDisplay:10.37 W/m2 CLR
01:43 47.4 °F /  8.6 °C 23.7 °F /  -4.6 °C 29.82in /  1009.7hPa WSW 5.0mph /  8km/h 5.0mph /  8km/h 39% 0.00in /  0mm WeatherDisplay:10.37 W/m2 CLR
01:48 48.2 °F /  9 °C 23.1 °F /  -4.9 °C 29.81in /  1009.4hPa West 5.8mph /  9.3km/h 5.8mph /  9.3km/h 37% 0.00in /  0mm WeatherDisplay:10.37 W/m2 CLR
01:53 48.8 °F /  9.3 °C 23.0 °F /  -5 °C 29.81in /  1009.4hPa SW 3.5mph /  5.6km/h 5.5mph /  8.9km/h 36% 0.00in /  0mm WeatherDisplay:10.37 W/m2 CLR
01:58 49.4 °F /  9.7 °C 22.9 °F /  -5.1 °C 29.81in /  1009.4hPa WNW 4.6mph /  7.4km/h 4.6mph /  7.4km/h 35% 0.00in /  0mm WeatherDisplay:10.37 W/m2 CLR
02:03 49.7 °F /  9.8 °C 23.1 °F /  -4.9 °C 29.79in /  1008.7hPa WSW 3.5mph /  5.6km/h 3.5mph /  5.6km/h 35% 0.00in /  0mm WeatherDisplay:10.37 W/m2 CLR
02:08 49.5 °F /  9.7 °C 22.9 °F /  -5.1 °C 29.78in /  1008.4hPa WSW 9.2mph /  14.8km/h 9.2mph /  14.8km/h 35% 0.00in /  0mm WeatherDisplay:10.37 W/m2 CLR
02:13 49.3 °F /  9.6 °C 23.4 °F /  -4.8 °C 29.79in /  1008.7hPa WSW 10.4mph /  16.7km/h 10.4mph /  16.7km/h 36% 0.00in /  0mm WeatherDisplay:10.37 W/m2 CLR
02:18 49.0 °F /  9.4 °C 22.5 °F /  -5.3 °C 29.78in /  1008.4hPa West 3.5mph /  5.6km/h 3.5mph /  5.6km/h 35% 0.00in /  0mm WeatherDisplay:10.37 W/m2 CLR
02:23 48.9 °F /  9.4 °C 22.4 °F /  -5.3 °C 29.78in /  1008.4hPa NW 5.0mph /  8km/h 5.0mph /  8km/h 35% 0.00in /  0mm WeatherDisplay:10.37 W/m2 CLR
02:28 48.9 °F /  9.4 °C 22.4 °F /  -5.3 °C 29.78in /  1008.4hPa North 9.0mph /  14.5km/h 9.0mph /  14.5km/h 35% 0.00in /  0mm WeatherDisplay:10.37 W/m2 CLR
02:33 48.8 °F /  9.3 °C 22.3 °F /  -5.4 °C 29.78in /  1008.4hPa West 3.0mph /  4.8km/h 3.0mph /  4.8km/h 35% 0.00in /  0mm WeatherDisplay:10.37 W/m2 CLR
02:38 48.7 °F /  9.3 °C 22.2 °F /  -5.4 °C 29.78in /  1008.4hPa Calm     35% 0.00in /  0mm WeatherDisplay:10.37 W/m2 CLR
02:43 48.6 °F /  9.2 °C 22.1 °F /  -5.5 °C 29.78in /  1008.4hPa WSW 3.5mph /  5.6km/h   35% 0.00in /  0mm WeatherDisplay:10.37 W/m2 CLR
02:48 48.7 °F /  9.3 °C 22.2 °F /  -5.4 °C 29.78in /  1008.4hPa WSW 2.3mph /  3.7km/h 2.3mph /  3.7km/h 35% 0.00in /  0mm WeatherDisplay:10.37 W/m2 CLR
02:53 48.6 °F /  9.2 °C 22.8 °F /  -5.1 °C 29.78in /  1008.4hPa SW 3.5mph /  5.6km/h 3.5mph /  5.6km/h 36% 0.00in /  0mm WeatherDisplay:10.37 W/m2 CLR
02:58 48.5 °F /  9.2 °C 22.1 °F /  -5.5 °C 29.77in /  1008hPa SW 3.5mph /  5.6km/h 3.5mph /  5.6km/h 35% 0.00in /  0mm WeatherDisplay:10.37 W/m2 CLR
03:03 48.5 °F /  9.2 °C 22.1 °F /  -5.5 °C 29.79in /  1008.7hPa South 5.8mph /  9.3km/h 5.8mph /  9.3km/h 35% 0.00in /  0mm WeatherDisplay:10.37 W/m2 CLR
03:08 48.7 °F /  9.3 °C 21.5 °F /  -5.8 °C 29.79in /  1008.7hPa SE 5.8mph /  9.3km/h 5.8mph /  9.3km/h 34% 0.00in /  0mm WeatherDisplay:10.37 W/m2 CLR
03:13 48.2 °F /  9 °C 22.5 °F /  -5.3 °C 29.78in /  1008.4hPa SE 6.0mph /  9.7km/h 6.0mph /  9.7km/h 36% 0.00in /  0mm WeatherDisplay:10.37 W/m2 CLR
03:19 47.9 °F /  8.8 °C 20.8 °F /  -6.2 °C 29.79in /  1008.7hPa South 6.9mph /  11.1km/h 6.9mph /  11.1km/h 34% 0.00in /  0mm WeatherDisplay:10.37 W/m2 CLR
03:23 48.7 °F /  9.3 °C 21.5 °F /  -5.8 °C 29.79in /  1008.7hPa SSE 10.4mph /  16.7km/h 10.4mph /  16.7km/h 34% 0.00in /  0mm WeatherDisplay:10.37 W/m2 CLR
03:29 48.7 °F /  9.3 °C 21.5 °F /  -5.8 °C 29.78in /  1008.4hPa ESE 6.9mph /  11.1km/h 6.9mph /  11.1km/h 34% 0.00in /  0mm WeatherDisplay:10.37 W/m2 CLR
03:34 48.5 °F /  9.2 °C 21.4 °F /  -5.9 °C 29.78in /  1008.4hPa SE 6.9mph /  11.1km/h 6.9mph /  11.1km/h 34% 0.00in /  0mm WeatherDisplay:10.37 W/m2 CLR
03:39 48.0 °F /  8.9 °C 22.3 °F /  -5.4 °C 29.77in /  1008hPa East 10.0mph /  16.1km/h 10.0mph /  16.1km/h 36% 0.00in /  0mm WeatherDisplay:10.37 W/m2 CLR
03:44 48.4 °F /  9.1 °C 21.3 °F /  -5.9 °C 29.78in /  1008.4hPa ESE 10.4mph /  16.7km/h 10.4mph /  16.7km/h 34% 0.00in /  0mm WeatherDisplay:10.37 W/m2 CLR
03:49 48.7 °F /  9.3 °C 21.5 °F /  -5.8 °C 29.78in /  1008.4hPa ESE 5.0mph /  8km/h 5.0mph /  8km/h 34% 0.00in /  0mm WeatherDisplay:10.37 W/m2 CLR
03:54 48.4 °F /  9.1 °C 22.0 °F /  -5.6 °C 29.78in /  1008.4hPa ESE 3.5mph /  5.6km/h 3.5mph /  5.6km/h 35% 0.00in /  0mm WeatherDisplay:10.37 W/m2 CLR
03:59 47.6 °F /  8.7 °C 21.9 °F /  -5.6 °C 29.78in /  1008.4hPa South 5.8mph /  9.3km/h 5.8mph /  9.3km/h 36% 0.00in /  0mm WeatherDisplay:10.37 W/m2 CLR
04:04 47.4 °F /  8.6 °C 21.1 °F /  -6.1 °C 29.80in /  1009hPa SSE 4.6mph /  7.4km/h 4.6mph /  7.4km/h 35% 0.00in /  0mm WeatherDisplay:10.37 W/m2 CLR
04:09 48.5 °F /  9.2 °C 21.4 °F /  -5.9 °C 29.78in /  1008.4hPa SSW 6.9mph /  11.1km/h 6.9mph /  11.1km/h 34% 0.00in /  0mm WeatherDisplay:10.37 W/m2 CLR
04:14 48.8 °F /  9.3 °C 21.6 °F /  -5.8 °C 29.78in /  1008.4hPa South 4.6mph /  7.4km/h 4.6mph /  7.4km/h 34% 0.00in /  0mm WeatherDisplay:10.37 W/m2 CLR
04:19 49.0 °F /  9.4 °C 20.4 °F /  -6.4 °C 29.78in /  1008.4hPa SSE 2.3mph /  3.7km/h 2.3mph /  3.7km/h 32% 0.00in /  0mm WeatherDisplay:10.37 W/m2 CLR
04:24 49.2 °F /  9.6 °C 20.6 °F /  -6.3 °C 29.78in /  1008.4hPa SSE 2.3mph /  3.7km/h   32% 0.00in /  0mm WeatherDisplay:10.37 W/m2 CLR
04:29 49.1 °F /  9.5 °C 21.9 °F /  -5.6 °C 29.79in /  1008.7hPa Calm     34% 0.00in /  0mm WeatherDisplay:10.37 W/m2 CLR
04:34 48.3 °F /  9.1 °C 21.2 °F /  -6 °C 29.78in /  1008.4hPa SSW 2.3mph /  3.7km/h 2.3mph /  3.7km/h 34% 0.00in /  0mm WeatherDisplay:10.37 W/m2 CLR
04:39 48.2 °F /  9 °C 21.1 °F /  -6.1 °C 29.78in /  1008.4hPa West 2.3mph /  3.7km/h 2.3mph /  3.7km/h 34% 0.00in /  0mm WeatherDisplay:10.37 W/m2 CLR
04:44 48.1 °F /  8.9 °C 21.7 °F /  -5.7 °C 29.78in /  1008.4hPa SSE 4.6mph /  7.4km/h 4.6mph /  7.4km/h 35% 0.00in /  0mm WeatherDisplay:10.37 W/m2 CLR
04:49 48.5 °F /  9.2 °C 21.4 °F /  -5.9 °C 29.78in /  1008.4hPa South 3.5mph /  5.6km/h 3.5mph /  5.6km/h 34% 0.00in /  0mm WeatherDisplay:10.37 W/m2 CLR
04:54 49.0 °F /  9.4 °C 21.1 °F /  -6.1 °C 29.78in /  1008.4hPa South 15.0mph /  24.1km/h 15.0mph /  24.1km/h 33% 0.00in /  0mm WeatherDisplay:10.37 W/m2 CLR
04:59 49.8 °F /  9.9 °C 21.8 °F /  -5.7 °C 29.77in /  1008hPa SW 3.5mph /  5.6km/h 3.5mph /  5.6km/h 33% 0.00in /  0mm WeatherDisplay:10.37 W/m2 CLR
05:04 50.1 °F /  10.1 °C 22.8 °F /  -5.1 °C 29.81in /  1009.4hPa SSW 3.5mph /  5.6km/h 3.5mph /  5.6km/h 34% 0.00in /  0mm WeatherDisplay:10.37 W/m2 CLR
05:09 49.6 °F /  9.8 °C 23.7 °F /  -4.6 °C 29.80in /  1009hPa SW 7.0mph /  11.3km/h 7.0mph /  11.3km/h 36% 0.00in /  0mm WeatherDisplay:10.37 W/m2 CLR
05:14 49.2 °F /  9.6 °C 22.7 °F /  -5.2 °C 29.81in /  1009.4hPa SW 3.5mph /  5.6km/h 3.5mph /  5.6km/h 35% 0.00in /  0mm WeatherDisplay:10.37 W/m2 CLR
05:19 49.1 °F /  9.5 °C 22.6 °F /  -5.2 °C 29.80in /  1009hPa SSW 6.9mph /  11.1km/h 6.9mph /  11.1km/h 35% 0.00in /  0mm WeatherDisplay:10.37 W/m2 CLR
05:24 48.8 °F /  9.3 °C 23.6 °F /  -4.7 °C 29.81in /  1009.4hPa WSW 3.5mph /  5.6km/h 3.5mph /  5.6km/h 37% 0.00in /  0mm WeatherDisplay:10.37 W/m2 CLR
05:29 48.6 °F /  9.2 °C 22.8 °F /  -5.1 °C 29.81in /  1009.4hPa WSW 4.0mph /  6.4km/h 4.0mph /  6.4km/h 36% 0.00in /  0mm WeatherDisplay:10.37 W/m2 CLR
05:34 48.6 °F /  9.2 °C 22.8 °F /  -5.1 °C 29.80in /  1009hPa NNW 1.2mph /  1.9km/h 1.2mph /  1.9km/h 36% 0.00in /  0mm WeatherDisplay:10.37 W/m2 CLR
05:39 48.5 °F /  9.2 °C 22.7 °F /  -5.2 °C 29.80in /  1009hPa NNW 2.3mph /  3.7km/h 2.3mph /  3.7km/h 36% 0.00in /  0mm WeatherDisplay:10.37 W/m2 CLR
05:44 48.5 °F /  9.2 °C 22.1 °F /  -5.5 °C 29.80in /  1009hPa WNW 3.5mph /  5.6km/h 3.5mph /  5.6km/h 35% 0.00in /  0mm WeatherDisplay:10.37 W/m2 CLR
05:49 48.8 °F /  9.3 °C 22.3 °F /  -5.4 °C 29.81in /  1009.4hPa WSW 3.5mph /  5.6km/h 3.5mph /  5.6km/h 35% 0.00in /  0mm WeatherDisplay:10.37 W/m2 CLR
05:54 48.6 °F /  9.2 °C 22.8 °F /  -5.1 °C 29.80in /  1009hPa SW 4.6mph /  7.4km/h 4.6mph /  7.4km/h 36% 0.00in /  0mm WeatherDisplay:10.37 W/m2 CLR
05:59 48.2 °F /  9 °C 22.5 °F /  -5.3 °C 29.81in /  1009.4hPa SW 10.4mph /  16.7km/h 10.4mph /  16.7km/h 36% 0.00in /  0mm WeatherDisplay:10.37 W/m2 CLR
06:04 48.3 °F /  9.1 °C 21.9 °F /  -5.6 °C 29.80in /  1009hPa WSW 3.0mph /  4.8km/h 3.0mph /  4.8km/h 35% 0.00in /  0mm WeatherDisplay:10.37 W/m2 CLR
06:09 48.5 °F /  9.2 °C 22.1 °F /  -5.5 °C 29.80in /  1009hPa SSW 8.0mph /  12.9km/h 8.0mph /  12.9km/h 35% 0.00in /  0mm WeatherDisplay:10.37 W/m2 CLR
06:14 48.8 °F /  9.3 °C 22.3 °F /  -5.4 °C 29.80in /  1009hPa West 5.8mph /  9.3km/h 5.8mph /  9.3km/h 35% 0.00in /  0mm WeatherDisplay:10.37 W/m2 CLR
06:19 49.1 °F /  9.5 °C 21.9 °F /  -5.6 °C 29.79in /  1008.7hPa WSW 5.8mph /  9.3km/h 5.8mph /  9.3km/h 34% 0.00in /  0mm WeatherDisplay:10.37 W/m2 CLR
06:24 49.2 °F /  9.6 °C 22.0 °F /  -5.6 °C 29.80in /  1009hPa West 5.8mph /  9.3km/h 5.8mph /  9.3km/h 34% 0.00in /  0mm WeatherDisplay:10.37 W/m2 CLR
06:29 49.3 °F /  9.6 °C 22.8 °F /  -5.1 °C 29.80in /  1009hPa WSW 3.5mph /  5.6km/h 3.5mph /  5.6km/h 35% 0.00in /  0mm WeatherDisplay:10.37 W/m2 CLR
06:34 49.1 °F /  9.5 °C 22.6 °F /  -5.2 °C 29.80in /  1009hPa SSW 4.0mph /  6.4km/h 4.0mph /  6.4km/h 35% 0.00in /  0mm WeatherDisplay:10.37 W/m2 CLR
06:39 49.0 °F /  9.4 °C 22.5 °F /  -5.3 °C 29.79in /  1008.7hPa WSW 7.0mph /  11.3km/h 7.0mph /  11.3km/h 35% 0.00in /  0mm WeatherDisplay:10.37 W/m2 CLR
06:44 49.6 °F /  9.8 °C 21.6 °F /  -5.8 °C 29.79in /  1008.7hPa West 18.4mph /  29.6km/h 18.4mph /  29.6km/h 33% 0.00in /  0mm WeatherDisplay:10.37 W/m2 CLR
06:49 50.4 °F /  10.2 °C 22.3 °F /  -5.4 °C 29.78in /  1008.4hPa WNW 16.1mph /  25.9km/h 16.1mph /  25.9km/h 33% 0.00in /  0mm WeatherDisplay:10.37 W/m2 CLR
06:54 50.6 °F /  10.3 °C 22.5 °F /  -5.3 °C 29.78in /  1008.4hPa West 13.8mph /  22.2km/h 13.8mph /  22.2km/h 33% 0.00in /  0mm WeatherDisplay:10.37 W/m2 CLR
06:59 50.6 °F /  10.3 °C 22.5 °F /  -5.3 °C 29.77in /  1008hPa West 10.4mph /  16.7km/h 10.4mph /  16.7km/h 33% 0.00in /  0mm WeatherDisplay:10.37 W/m2 CLR
07:04 51.0 °F /  10.6 °C 22.1 °F /  -5.5 °C 29.79in /  1008.7hPa SW 13.8mph /  22.2km/h 13.8mph /  22.2km/h 32% 0.00in /  0mm WeatherDisplay:10.37 W/m2 CLR
07:09 51.1 °F /  10.6 °C 23.0 °F /  -5 °C 29.79in /  1008.7hPa West 13.8mph /  22.2km/h 13.8mph /  22.2km/h 33% 0.00in /  0mm WeatherDisplay:10.37 W/m2 CLR
07:14 51.1 °F /  10.6 °C 23.0 °F /  -5 °C 29.79in /  1008.7hPa West 12.7mph /  20.4km/h 12.7mph /  20.4km/h 33% 0.00in /  0mm WeatherDisplay:10.37 W/m2 CLR
07:19 51.0 °F /  10.6 °C 22.9 °F /  -5.1 °C 29.79in /  1008.7hPa ESE 6.9mph /  11.1km/h 6.9mph /  11.1km/h 33% 0.00in /  0mm WeatherDisplay:10.37 W/m2 CLR
07:24 51.2 °F /  10.7 °C 22.3 °F /  -5.4 °C 29.78in /  1008.4hPa South 12.7mph /  20.4km/h 12.7mph /  20.4km/h 32% 0.00in /  0mm WeatherDisplay:10.37 W/m2 CLR
07:29 51.4 °F /  10.8 °C 22.5 °F /  -5.3 °C 29.78in /  1008.4hPa SW 13.0mph /  20.9km/h 13.0mph /  20.9km/h 32% 0.00in /  0mm WeatherDisplay:10.37 W/m2 CLR
07:34 51.8 °F /  11 °C 22.1 °F /  -5.5 °C 29.77in /  1008hPa SSW 11.5mph /  18.5km/h 11.5mph /  18.5km/h 31% 0.00in /  0mm WeatherDisplay:10.37 W/m2 CLR
07:39 51.8 °F /  11 °C 22.8 °F /  -5.1 °C 29.78in /  1008.4hPa West 11.5mph /  18.5km/h 11.5mph /  18.5km/h 32% 0.00in /  0mm WeatherDisplay:10.37 W/m2 CLR
07:44 51.9 °F /  11.1 °C 22.2 °F /  -5.4 °C 29.78in /  1008.4hPa SSW 11.5mph /  18.5km/h 11.5mph /  18.5km/h 31% 0.00in /  0mm WeatherDisplay:10.37 W/m2 CLR
07:49 52.0 °F /  11.1 °C 23.0 °F /  -5 °C 29.78in /  1008.4hPa WSW 5.8mph /  9.3km/h 5.8mph /  9.3km/h 32% 0.00in /  0mm WeatherDisplay:10.37 W/m2 CLR
07:54 51.9 °F /  11.1 °C 23.7 °F /  -4.6 °C 29.78in /  1008.4hPa SSW 12.7mph /  20.4km/h 12.7mph /  20.4km/h 33% 0.00in /  0mm WeatherDisplay:10.37 W/m2 CLR
07:59 52.0 °F /  11.1 °C 23.0 °F /  -5 °C 29.78in /  1008.4hPa West 12.7mph /  20.4km/h 12.7mph /  20.4km/h 32% 0.00in /  0mm WeatherDisplay:10.37 W/m2 CLR
08:04 52.3 °F /  11.3 °C 23.3 °F /  -4.8 °C 29.79in /  1008.7hPa WSW 19.6mph /  31.5km/h 19.6mph /  31.5km/h 32% 0.00in /  0mm WeatherDisplay:10.37 W/m2 CLR
08:09 52.6 °F /  11.4 °C 23.5 °F /  -4.7 °C 29.79in /  1008.7hPa SW 11.0mph /  17.7km/h 11.0mph /  17.7km/h 32% 0.00in /  0mm WeatherDisplay:10.37 W/m2 CLR
08:14 52.8 °F /  11.6 °C 23.7 °F /  -4.6 °C 29.79in /  1008.7hPa West 13.8mph /  22.2km/h 13.8mph /  22.2km/h 32% 0.00in /  0mm WeatherDisplay:10.37 W/m2 CLR
08:19 53.0 °F /  11.7 °C 23.9 °F /  -4.5 °C 29.79in /  1008.7hPa WNW 17.3mph /  27.8km/h 17.3mph /  27.8km/h 32% 0.00in /  0mm WeatherDisplay:10.37 W/m2 CLR
08:24 52.9 °F /  11.6 °C 24.5 °F /  -4.2 °C 29.78in /  1008.4hPa WSW 6.0mph /  9.7km/h 6.0mph /  9.7km/h 33% 0.00in /  0mm WeatherDisplay:10.37 W/m2 CLR
08:29 52.6 °F /  11.4 °C 25.0 °F /  -3.9 °C 29.78in /  1008.4hPa WSW 13.8mph /  22.2km/h 13.8mph /  22.2km/h 34% 0.00in /  0mm WeatherDisplay:10.37 W/m2 CLR
08:34 52.5 °F /  11.4 °C 24.9 °F /  -3.9 °C 29.78in /  1008.4hPa WSW 11.0mph /  17.7km/h 11.0mph /  17.7km/h 34% 0.00in /  0mm WeatherDisplay:10.37 W/m2 CLR
08:39 52.4 °F /  11.3 °C 24.8 °F /  -4 °C 29.79in /  1008.7hPa West 5.8mph /  9.3km/h 5.8mph /  9.3km/h 34% 0.00in /  0mm WeatherDisplay:10.37 W/m2 CLR
08:44 52.4 °F /  11.3 °C 24.8 °F /  -4 °C 29.78in /  1008.4hPa West 4.6mph /  7.4km/h 4.6mph /  7.4km/h 34% 0.00in /  0mm WeatherDisplay:10.37 W/m2 CLR
08:49 52.7 °F /  11.5 °C 24.4 °F /  -4.2 °C 29.79in /  1008.7hPa WSW 6.9mph /  11.1km/h 6.9mph /  11.1km/h 33% 0.00in /  0mm WeatherDisplay:10.37 W/m2 CLR
08:54 53.0 °F /  11.7 °C 26.0 °F /  -3.3 °C 29.78in /  1008.4hPa WSW 4.6mph /  7.4km/h 4.6mph /  7.4km/h 35% 0.00in /  0mm WeatherDisplay:10.37 W/m2 CLR
08:59 53.3 °F /  11.8 °C 26.3 °F /  -3.2 °C 29.78in /  1008.4hPa South 12.0mph /  19.3km/h 12.0mph /  19.3km/h 35% 0.00in /  0mm WeatherDisplay:10.37 W/m2 CLR
09:04 54.3 °F /  12.4 °C 25.8 °F /  -3.4 °C 29.79in /  1008.7hPa SW 12.7mph /  20.4km/h 12.7mph /  20.4km/h 33% 0.00in /  0mm WeatherDisplay:10.37 W/m2 CLR
09:09 55.4 °F /  13 °C 26.0 °F /  -3.3 °C 29.78in /  1008.4hPa North 18.4mph /  29.6km/h 18.4mph /  29.6km/h 32% 0.00in /  0mm WeatherDisplay:10.37 W/m2 CLR
09:14 56.2 °F /  13.4 °C 26.7 °F /  -2.9 °C 29.79in /  1008.7hPa West 18.4mph /  29.6km/h 18.4mph /  29.6km/h 32% 0.00in /  0mm WeatherDisplay:10.37 W/m2 CLR
09:20 56.6 °F /  13.7 °C 26.3 °F /  -3.2 °C 29.77in /  1008hPa SSW 13.8mph /  22.2km/h 13.8mph /  22.2km/h 31% 0.00in /  0mm WeatherDisplay:10.37 W/m2 CLR
09:25 57.0 °F /  13.9 °C 26.6 °F /  -3 °C 29.77in /  1008hPa SW 12.7mph /  20.4km/h 12.7mph /  20.4km/h 31% 0.00in /  0mm WeatherDisplay:10.37 W/m2 CLR
09:30 57.3 °F /  14.1 °C 26.9 °F /  -2.8 °C 29.77in /  1008hPa West 12.7mph /  20.4km/h 12.7mph /  20.4km/h 31% 0.00in /  0mm WeatherDisplay:10.37 W/m2 CLR
09:35 57.6 °F /  14.2 °C 26.4 °F /  -3.1 °C 29.77in /  1008hPa WNW 13.8mph /  22.2km/h 13.8mph /  22.2km/h 30% 0.00in /  0mm WeatherDisplay:10.37 W/m2 CLR
09:40 57.7 °F /  14.3 °C 26.4 °F /  -3.1 °C 29.76in /  1007.7hPa SSW 11.5mph /  18.5km/h 11.5mph /  18.5km/h 30% 0.00in /  0mm WeatherDisplay:10.37 W/m2 CLR
09:45 57.8 °F /  14.3 °C 27.3 °F /  -2.6 °C 29.77in /  1008hPa West 11.0mph /  17.7km/h 11.0mph /  17.7km/h 31% 0.00in /  0mm WeatherDisplay:10.37 W/m2 CLR
09:50 58.0 °F /  14.4 °C 26.7 °F /  -2.9 °C 29.77in /  1008hPa South 17.3mph /  27.8km/h 17.3mph /  27.8km/h 30% 0.00in /  0mm WeatherDisplay:10.37 W/m2 CLR
09:55 58.1 °F /  14.5 °C 26.8 °F /  -2.9 °C 29.77in /  1008hPa West 18.4mph /  29.6km/h 18.4mph /  29.6km/h 30% 0.00in /  0mm WeatherDisplay:10.37 W/m2 CLR
10:00 58.3 °F /  14.6 °C 26.1 °F /  -3.3 °C 29.76in /  1007.7hPa West 19.6mph /  31.5km/h 19.6mph /  31.5km/h 29% 0.00in /  0mm WeatherDisplay:10.37 W/m2 CLR
10:05 58.6 °F /  14.8 °C 25.6 °F /  -3.6 °C 29.76in /  1007.7hPa West 16.1mph /  25.9km/h 16.1mph /  25.9km/h 28% 0.00in /  0mm WeatherDisplay:10.37 W/m2 CLR
10:10 59.0 °F /  15 °C 27.6 °F /  -2.4 °C 29.76in /  1007.7hPa SE 11.5mph /  18.5km/h 11.5mph /  18.5km/h 30% 0.00in /  0mm WeatherDisplay:10.37 W/m2 CLR
10:15 59.2 °F /  15.1 °C 26.9 °F /  -2.8 °C 29.76in /  1007.7hPa South 12.7mph /  20.4km/h 12.7mph /  20.4km/h 29% 0.00in /  0mm WeatherDisplay:10.37 W/m2 CLR
10:20 59.3 °F /  15.2 °C 27.0 °F /  -2.8 °C 29.76in /  1007.7hPa South 16.1mph /  25.9km/h 16.1mph /  25.9km/h 29% 0.00in /  0mm WeatherDisplay:10.37 W/m2 CLR
10:25 59.4 °F /  15.2 °C 27.1 °F /  -2.7 °C 29.76in /  1007.7hPa West 22.0mph /  35.4km/h 22.0mph /  35.4km/h 29% 0.00in /  0mm WeatherDisplay:10.37 W/m2 CLR
10:30 59.4 °F /  15.2 °C 27.1 °F /  -2.7 °C 29.75in /  1007.3hPa West 13.8mph /  22.2km/h 13.8mph /  22.2km/h 29% 0.00in /  0mm WeatherDisplay:10.37 W/m2 CLR
10:35 59.5 °F /  15.3 °C 27.2 °F /  -2.7 °C 29.75in /  1007.3hPa SW 15.0mph /  24.1km/h 15.0mph /  24.1km/h 29% 0.00in /  0mm WeatherDisplay:10.37 W/m2 CLR
10:40 59.7 °F /  15.4 °C 28.2 °F /  -2.1 °C 29.73in /  1006.7hPa WNW 11.5mph /  18.5km/h 11.5mph /  18.5km/h 30% 0.00in /  0mm WeatherDisplay:10.37 W/m2 CLR
10:45 59.8 °F /  15.4 °C 28.3 °F /  -2.1 °C 29.73in /  1006.7hPa South 18.4mph /  29.6km/h 18.4mph /  29.6km/h 30% 0.00in /  0mm WeatherDisplay:10.37 W/m2 CLR
10:50 59.5 °F /  15.3 °C 27.2 °F /  -2.7 °C 29.73in /  1006.7hPa SW 12.7mph /  20.4km/h 12.7mph /  20.4km/h 29% 0.00in /  0mm WeatherDisplay:10.37 W/m2 CLR
10:55 59.2 °F /  15.1 °C 27.7 °F /  -2.4 °C 29.74in /  1007hPa WSW 10.4mph /  16.7km/h 10.4mph /  16.7km/h 30% 0.00in /  0mm WeatherDisplay:10.37 W/m2 CLR
11:00 59.3 °F /  15.2 °C 27.0 °F /  -2.8 °C 29.74in /  1007hPa WNW 11.5mph /  18.5km/h 11.5mph /  18.5km/h 29% 0.00in /  0mm WeatherDisplay:10.37 W/m2 CLR
11:05 59.2 °F /  15.1 °C 26.9 °F /  -2.8 °C 29.74in /  1007hPa North 15.0mph /  24.1km/h 15.0mph /  24.1km/h 29% 0.00in /  0mm WeatherDisplay:10.37 W/m2 CLR
11:10 59.3 °F /  15.2 °C 27.0 °F /  -2.8 °C 29.73in /  1006.7hPa WSW 13.8mph /  22.2km/h 13.8mph /  22.2km/h 29% 0.00in /  0mm WeatherDisplay:10.37 W/m2 CLR
11:15 59.3 °F /  15.2 °C 27.0 °F /  -2.8 °C 29.73in /  1006.7hPa WNW 16.1mph /  25.9km/h 16.1mph /  25.9km/h 29% 0.00in /  0mm WeatherDisplay:10.37 W/m2 CLR
11:20 59.6 °F /  15.3 °C 27.3 °F /  -2.6 °C 29.72in /  1006.3hPa WNW 11.5mph /  18.5km/h 11.5mph /  18.5km/h 29% 0.00in /  0mm WeatherDisplay:10.37 W/m2 CLR
11:25 59.7 °F /  15.4 °C 26.5 °F /  -3.1 °C 29.71in /  1006hPa SE 19.6mph /  31.5km/h 19.6mph /  31.5km/h 28% 0.00in /  0mm WeatherDisplay:10.37 W/m2 CLR
11:30 59.9 °F /  15.5 °C 26.7 °F /  -2.9 °C 29.71in /  1006hPa WSW 18.0mph /  29km/h 18.0mph /  29km/h 28% 0.00in /  0mm WeatherDisplay:10.37 W/m2 CLR
11:35 59.9 °F /  15.5 °C 26.7 °F /  -2.9 °C 29.71in /  1006hPa WNW 18.4mph /  29.6km/h 18.4mph /  29.6km/h 28% 0.00in /  0mm WeatherDisplay:10.37 W/m2 CLR
11:40 60.3 °F /  15.7 °C 26.1 °F /  -3.3 °C 29.70in /  1005.6hPa SSE 16.1mph /  25.9km/h 16.1mph /  25.9km/h 27% 0.00in /  0mm WeatherDisplay:10.37 W/m2 CLR
11:45 60.7 °F /  15.9 °C 27.4 °F /  -2.6 °C 29.70in /  1005.6hPa SW 13.8mph /  22.2km/h 13.8mph /  22.2km/h 28% 0.00in /  0mm WeatherDisplay:10.37 W/m2 CLR
11:50 60.8 °F /  16 °C 27.5 °F /  -2.5 °C 29.70in /  1005.6hPa WSW 11.5mph /  18.5km/h 11.5mph /  18.5km/h 28% 0.00in /  0mm WeatherDisplay:10.37 W/m2 CLR
11:55 60.9 °F /  16.1 °C 27.5 °F /  -2.5 °C 29.69in /  1005.3hPa WSW 19.6mph /  31.5km/h 19.6mph /  31.5km/h 28% 0.00in /  0mm WeatherDisplay:10.37 W/m2 CLR
12:00 60.9 °F /  16.1 °C 26.7 °F /  -2.9 °C 29.69in /  1005.3hPa SSW 21.9mph /  35.2km/h 21.9mph /  35.2km/h 27% 0.00in /  0mm WeatherDisplay:10.37 W/m2 CLR
12:05 61.0 °F /  16.1 °C 25.8 °F /  -3.4 °C 29.68in /  1005hPa NW 15.0mph /  24.1km/h 15.0mph /  24.1km/h 26% 0.00in /  0mm WeatherDisplay:10.37 W/m2 CLR
12:10 61.3 °F /  16.3 °C 27.0 °F /  -2.8 °C 29.67in /  1004.6hPa West 15.0mph /  24.1km/h 15.0mph /  24.1km/h 27% 0.00in /  0mm WeatherDisplay:10.37 W/m2 CLR
12:15 61.6 °F /  16.4 °C 28.1 °F /  -2.2 °C 29.66in /  1004.3hPa SW 9.2mph /  14.8km/h 9.2mph /  14.8km/h 28% 0.00in /  0mm WeatherDisplay:10.37 W/m2 CLR
12:20 62.4 °F /  16.9 °C 27.9 °F /  -2.3 °C 29.66in /  1004.3hPa West 9.2mph /  14.8km/h 9.2mph /  14.8km/h 27% 0.00in /  0mm WeatherDisplay:10.37 W/m2 CLR
12:25 62.9 °F /  17.2 °C 28.4 °F /  -2 °C 29.66in /  1004.3hPa WSW 10.4mph /  16.7km/h 10.4mph /  16.7km/h 27% 0.00in /  0mm WeatherDisplay:10.37 W/m2 CLR
12:30 62.9 °F /  17.2 °C 30.1 °F /  -1.1 °C 29.65in /  1003.9hPa WSW 9.2mph /  14.8km/h 9.2mph /  14.8km/h 29% 0.00in /  0mm WeatherDisplay:10.37 W/m2 CLR
12:35 62.7 °F /  17.1 °C 28.2 °F /  -2.1 °C 29.65in /  1003.9hPa WSW 6.9mph /  11.1km/h 6.9mph /  11.1km/h 27% 0.00in /  0mm WeatherDisplay:10.37 W/m2 CLR
12:40 62.6 °F /  17 °C 28.1 °F /  -2.2 °C 29.65in /  1003.9hPa WNW 10.4mph /  16.7km/h 10.4mph /  16.7km/h 27% 0.00in /  0mm WeatherDisplay:10.37 W/m2 CLR
12:45 62.5 °F /  16.9 °C 28.9 °F /  -1.7 °C 29.65in /  1003.9hPa SE 6.9mph /  11.1km/h 6.9mph /  11.1km/h 28% 0.00in /  0mm WeatherDisplay:10.37 W/m2 CLR
12:50 62.9 °F /  17.2 °C 28.4 °F /  -2 °C 29.64in /  1003.6hPa WSW 17.3mph /  27.8km/h 17.3mph /  27.8km/h 27% 0.00in /  0mm WeatherDisplay:10.37 W/m2 CLR
12:55 63.1 °F /  17.3 °C 26.7 °F /  -2.9 °C 29.65in /  1003.9hPa SSW 11.5mph /  18.5km/h 11.5mph /  18.5km/h 25% 0.00in /  0mm WeatherDisplay:10.37 W/m2 CLR
13:00 63.0 °F /  17.2 °C 27.5 °F /  -2.5 °C 29.64in /  1003.6hPa SSW 11.5mph /  18.5km/h 11.5mph /  18.5km/h 26% 0.00in /  0mm WeatherDisplay:10.37 W/m2 CLR
13:05 62.8 °F /  17.1 °C 27.4 °F /  -2.6 °C 29.58in /  1001.6hPa North 15.0mph /  24.1km/h 15.0mph /  24.1km/h 26% 0.00in /  0mm WeatherDisplay:10.37 W/m2 CLR
13:10 62.6 °F /  17 °C 27.2 °F /  -2.7 °C 29.59in /  1001.9hPa ESE 12.7mph /  20.4km/h 12.7mph /  20.4km/h 26% 0.00in /  0mm WeatherDisplay:10.37 W/m2 CLR
13:15 62.6 °F /  17 °C 28.1 °F /  -2.2 °C 29.59in /  1001.9hPa WSW 6.9mph /  11.1km/h 6.9mph /  11.1km/h 27% 0.00in /  0mm WeatherDisplay:10.37 W/m2 CLR
13:20 62.9 °F /  17.2 °C 27.5 °F /  -2.5 °C 29.58in /  1001.6hPa WSW 11.5mph /  18.5km/h 11.5mph /  18.5km/h 26% 0.00in /  0mm WeatherDisplay:10.37 W/m2 CLR
13:25 62.4 °F /  16.9 °C 27.9 °F /  -2.3 °C 29.58in /  1001.6hPa SW 10.4mph /  16.7km/h 10.4mph /  16.7km/h 27% 0.00in /  0mm WeatherDisplay:10.37 W/m2 CLR
13:30 62.1 °F /  16.7 °C 27.7 °F /  -2.4 °C 29.58in /  1001.6hPa WSW 11.5mph /  18.5km/h 11.5mph /  18.5km/h 27% 0.00in /  0mm WeatherDisplay:10.37 W/m2 CLR
13:35 62.1 °F /  16.7 °C 27.7 °F /  -2.4 °C 29.57in /  1001.2hPa West 11.5mph /  18.5km/h 11.5mph /  18.5km/h 27% 0.00in /  0mm WeatherDisplay:10.37 W/m2 CLR
13:40 62.2 °F /  16.8 °C 27.8 °F /  -2.3 °C 29.57in /  1001.2hPa SW 11.5mph /  18.5km/h 11.5mph /  18.5km/h 27% 0.00in /  0mm WeatherDisplay:10.37 W/m2 CLR
13:45 62.5 °F /  16.9 °C 28.0 °F /  -2.2 °C 29.57in /  1001.2hPa SSW 3.5mph /  5.6km/h 3.5mph /  5.6km/h 27% 0.00in /  0mm WeatherDisplay:10.37 W/m2 CLR
13:50 62.9 °F /  17.2 °C 28.4 °F /  -2 °C 29.57in /  1001.2hPa NNW 5.8mph /  9.3km/h 5.8mph /  9.3km/h 27% 0.00in /  0mm WeatherDisplay:10.37 W/m2 CLR
13:55 63.1 °F /  17.3 °C 27.6 °F /  -2.4 °C 29.56in /  1000.9hPa West 10.4mph /  16.7km/h 10.4mph /  16.7km/h 26% 0.00in /  0mm WeatherDisplay:10.37 W/m2 CLR
14:01 62.7 °F /  17.1 °C 27.3 °F /  -2.6 °C 29.56in /  1000.9hPa WNW 14.0mph /  22.5km/h 14.0mph /  22.5km/h 26% 0.00in /  0mm WeatherDisplay:10.37 W/m2 CLR
14:06 62.4 °F /  16.9 °C 27.0 °F /  -2.8 °C 29.57in /  1001.2hPa NW 10.4mph /  16.7km/h 10.4mph /  16.7km/h 26% 0.00in /  0mm WeatherDisplay:10.37 W/m2 CLR
14:11 62.3 °F /  16.8 °C 27.9 °F /  -2.3 °C 29.56in /  1000.9hPa SSW 11.5mph /  18.5km/h 11.5mph /  18.5km/h 27% 0.00in /  0mm WeatherDisplay:10.37 W/m2 CLR
14:16 62.1 °F /  16.7 °C 27.7 °F /  -2.4 °C 29.56in /  1000.9hPa West 8.0mph /  12.9km/h 8.0mph /  12.9km/h 27% 0.00in /  0mm WeatherDisplay:10.37 W/m2 CLR
14:21 62.0 °F /  16.7 °C 27.6 °F /  -2.4 °C 29.55in /  1000.6hPa North 15.0mph /  24.1km/h 15.0mph /  24.1km/h 27% 0.00in /  0mm WeatherDisplay:10.37 W/m2 CLR
14:26 61.9 °F /  16.6 °C 26.6 °F /  -3 °C 29.55in /  1000.6hPa WSW 16.1mph /  25.9km/h 16.1mph /  25.9km/h 26% 0.00in /  0mm WeatherDisplay:10.37 W/m2 CLR
14:31 61.8 °F /  16.6 °C 27.4 °F /  -2.6 °C 29.55in /  1000.6hPa WSW 19.6mph /  31.5km/h 19.6mph /  31.5km/h 27% 0.00in /  0mm WeatherDisplay:10.37 W/m2 CLR
14:36 61.8 °F /  16.6 °C 27.4 °F /  -2.6 °C 29.55in /  1000.6hPa WNW 12.7mph /  20.4km/h 12.7mph /  20.4km/h 27% 0.00in /  0mm WeatherDisplay:10.37 W/m2 CLR
14:41 61.8 °F /  16.6 °C 26.5 °F /  -3.1 °C 29.55in /  1000.6hPa West 18.0mph /  29km/h 18.0mph /  29km/h 26% 0.00in /  0mm WeatherDisplay:10.37 W/m2 CLR
14:46 61.8 °F /  16.6 °C 27.4 °F /  -2.6 °C 29.55in /  1000.6hPa West 11.5mph /  18.5km/h 11.5mph /  18.5km/h 27% 0.00in /  0mm WeatherDisplay:10.37 W/m2 CLR
14:51 62.0 °F /  16.7 °C 26.7 °F /  -2.9 °C 29.55in /  1000.6hPa SW 11.5mph /  18.5km/h 11.5mph /  18.5km/h 26% 0.00in /  0mm WeatherDisplay:10.37 W/m2 CLR
14:56 62.3 °F /  16.8 °C 27.9 °F /  -2.3 °C 29.55in /  1000.6hPa SW 6.9mph /  11.1km/h 6.9mph /  11.1km/h 27% 0.00in /  0mm WeatherDisplay:10.37 W/m2 CLR
15:01 62.3 °F /  16.8 °C 26.9 °F /  -2.8 °C 29.55in /  1000.6hPa SSE 12.7mph /  20.4km/h 12.7mph /  20.4km/h 26% 0.00in /  0mm WeatherDisplay:10.37 W/m2 CLR
15:06 62.4 °F /  16.9 °C 26.1 °F /  -3.3 °C 29.55in /  1000.6hPa WSW 11.5mph /  18.5km/h 11.5mph /  18.5km/h 25% 0.00in /  0mm WeatherDisplay:10.37 W/m2 CLR
15:11 62.1 °F /  16.7 °C 25.8 °F /  -3.4 °C 29.54in /  1000.2hPa NNE 10.4mph /  16.7km/h 10.4mph /  16.7km/h 25% 0.00in /  0mm WeatherDisplay:10.37 W/m2 CLR
15:16 61.8 °F /  16.6 °C 24.6 °F /  -4.1 °C 29.54in /  1000.2hPa WNW 16.1mph /  25.9km/h 16.1mph /  25.9km/h 24% 0.00in /  0mm WeatherDisplay:10.37 W/m2 CLR
15:21 61.6 °F /  16.4 °C 25.4 °F /  -3.7 °C 29.55in /  1000.6hPa SSE 12.7mph /  20.4km/h 12.7mph /  20.4km/h 25% 0.00in /  0mm WeatherDisplay:10.37 W/m2 CLR
15:26 61.3 °F /  16.3 °C 25.1 °F /  -3.8 °C 29.55in /  1000.6hPa WSW 11.5mph /  18.5km/h 11.5mph /  18.5km/h 25% 0.00in /  0mm WeatherDisplay:10.37 W/m2 CLR
15:31 61.1 °F /  16.2 °C 25.9 °F /  -3.4 °C 29.55in /  1000.6hPa SW 6.0mph /  9.7km/h 6.0mph /  9.7km/h 26% 0.00in /  0mm WeatherDisplay:10.37 W/m2 CLR
15:36 60.7 °F /  15.9 °C 25.6 °F /  -3.6 °C 29.55in /  1000.6hPa SW 16.1mph /  25.9km/h 16.1mph /  25.9km/h 26% 0.00in /  0mm WeatherDisplay:10.37 W/m2 CLR
15:41 60.3 °F /  15.7 °C 25.2 °F /  -3.8 °C 29.56in /  1000.9hPa West 20.7mph /  33.3km/h 20.7mph /  33.3km/h 26% 0.00in /  0mm WeatherDisplay:10.37 W/m2 CLR
15:46 60.0 °F /  15.6 °C 25.0 °F /  -3.9 °C 29.56in /  1000.9hPa SSW 9.2mph /  14.8km/h 9.2mph /  14.8km/h 26% 0.00in /  0mm WeatherDisplay:10.37 W/m2 CLR
15:51 59.7 °F /  15.4 °C 25.6 °F /  -3.6 °C 29.56in /  1000.9hPa NW 4.6mph /  7.4km/h 4.6mph /  7.4km/h 27% 0.00in /  0mm WeatherDisplay:10.37 W/m2 CLR
15:56 59.3 °F /  15.2 °C 25.3 °F /  -3.7 °C 29.57in /  1001.2hPa WSW 6.9mph /  11.1km/h 6.9mph /  11.1km/h 27% 0.00in /  0mm WeatherDisplay:10.37 W/m2 CLR
16:01 59.0 °F /  15 °C 25.9 °F /  -3.4 °C 29.57in /  1001.2hPa West 12.7mph /  20.4km/h 12.7mph /  20.4km/h 28% 0.00in /  0mm WeatherDisplay:10.37 W/m2 CLR
16:06 59.0 °F /  15 °C 25.0 °F /  -3.9 °C 29.56in /  1000.9hPa South 16.1mph /  25.9km/h 16.1mph /  25.9km/h 27% 0.00in /  0mm WeatherDisplay:10.37 W/m2 CLR
16:11 58.7 °F /  14.8 °C 24.8 °F /  -4 °C 29.56in /  1000.9hPa WNW 11.5mph /  18.5km/h 11.5mph /  18.5km/h 27% 0.00in /  0mm WeatherDisplay:10.37 W/m2 CLR
16:16 58.5 °F /  14.7 °C 24.6 °F /  -4.1 °C 29.56in /  1000.9hPa WSW 11.0mph /  17.7km/h 11.0mph /  17.7km/h 27% 0.00in /  0mm WeatherDisplay:10.37 W/m2 CLR
16:21 58.4 °F /  14.7 °C 24.5 °F /  -4.2 °C 29.56in /  1000.9hPa West 11.5mph /  18.5km/h 11.5mph /  18.5km/h 27% 0.00in /  0mm WeatherDisplay:10.37 W/m2 CLR
16:26 58.2 °F /  14.6 °C 24.3 °F /  -4.3 °C 29.57in /  1001.2hPa WSW 10.0mph /  16.1km/h 10.0mph /  16.1km/h 27% 0.00in /  0mm WeatherDisplay:10.37 W/m2 CLR
16:31 57.9 °F /  14.4 °C 25.0 °F /  -3.9 °C 29.57in /  1001.2hPa WSW 9.2mph /  14.8km/h 9.2mph /  14.8km/h 28% 0.00in /  0mm WeatherDisplay:10.37 W/m2 CLR
16:36 57.6 °F /  14.2 °C 22.9 °F /  -5.1 °C 29.56in /  1000.9hPa West 15.0mph /  24.1km/h 15.0mph /  24.1km/h 26% 0.00in /  0mm WeatherDisplay:10.37 W/m2 CLR
16:41 57.4 °F /  14.1 °C 24.5 °F /  -4.2 °C 29.57in /  1001.2hPa WSW 11.5mph /  18.5km/h 11.5mph /  18.5km/h 28% 0.00in /  0mm WeatherDisplay:10.37 W/m2 CLR
16:46 57.1 °F /  13.9 °C 24.3 °F /  -4.3 °C 29.57in /  1001.2hPa West 10.4mph /  16.7km/h 10.4mph /  16.7km/h 28% 0.00in /  0mm WeatherDisplay:10.37 W/m2 CLR
16:51 56.7 °F /  13.7 °C 23.0 °F /  -5 °C 29.57in /  1001.2hPa West 10.4mph /  16.7km/h 10.4mph /  16.7km/h 27% 0.00in /  0mm WeatherDisplay:10.37 W/m2 CLR
16:56 56.4 °F /  13.6 °C 23.7 °F /  -4.6 °C 29.57in /  1001.2hPa SW 5.8mph /  9.3km/h 5.8mph /  9.3km/h 28% 0.00in /  0mm WeatherDisplay:10.37 W/m2 CLR
17:01 55.9 °F /  13.3 °C 24.1 °F /  -4.4 °C 29.58in /  1001.6hPa West 10.4mph /  16.7km/h 10.4mph /  16.7km/h 29% 0.00in /  0mm WeatherDisplay:10.37 W/m2 CLR
17:06 55.3 °F /  12.9 °C 23.5 °F /  -4.7 °C 29.59in /  1001.9hPa WSW 6.9mph /  11.1km/h 6.9mph /  11.1km/h 29% 0.00in /  0mm WeatherDisplay:10.37 W/m2 CLR
17:11 54.7 °F /  12.6 °C 24.6 °F /  -4.1 °C 29.59in /  1001.9hPa West 5.8mph /  9.3km/h 5.8mph /  9.3km/h 31% 0.00in /  0mm WeatherDisplay:10.37 W/m2 CLR
17:16 54.0 °F /  12.2 °C 24.0 °F /  -4.4 °C 29.59in /  1001.9hPa West 5.8mph /  9.3km/h 5.8mph /  9.3km/h 31% 0.00in /  0mm WeatherDisplay:10.37 W/m2 CLR
17:21 53.5 °F /  11.9 °C 23.6 °F /  -4.7 °C 29.59in /  1001.9hPa West 9.2mph /  14.8km/h 9.2mph /  14.8km/h 31% 0.00in /  0mm WeatherDisplay:10.37 W/m2 CLR
17:26 53.2 °F /  11.8 °C 23.3 °F /  -4.8 °C 29.60in /  1002.3hPa WSW 11.5mph /  18.5km/h 11.5mph /  18.5km/h 31% 0.00in /  0mm WeatherDisplay:10.37 W/m2 CLR
17:31 52.8 °F /  11.6 °C 23.0 °F /  -5 °C 29.60in /  1002.3hPa WNW 4.6mph /  7.4km/h 4.6mph /  7.4km/h 31% 0.00in /  0mm WeatherDisplay:10.37 W/m2 CLR
17:36 52.5 °F /  11.4 °C 22.7 °F /  -5.2 °C 29.60in /  1002.3hPa NNE 3.5mph /  5.6km/h 3.5mph /  5.6km/h 31% 0.00in /  0mm WeatherDisplay:10.37 W/m2 CLR
17:41 52.3 °F /  11.3 °C 22.5 °F /  -5.3 °C 29.60in /  1002.3hPa WNW 2.3mph /  3.7km/h 2.3mph /  3.7km/h 31% 0.00in /  0mm WeatherDisplay:10.37 W/m2 CLR
17:47 51.9 °F /  11.1 °C 22.9 °F /  -5.1 °C 29.61in /  1002.6hPa WSW 9.2mph /  14.8km/h 9.2mph /  14.8km/h 32% 0.00in /  0mm WeatherDisplay:10.37 W/m2 CLR
17:52 51.5 °F /  10.8 °C 22.6 °F /  -5.2 °C 29.60in /  1002.3hPa West 6.9mph /  11.1km/h 6.9mph /  11.1km/h 32% 0.00in /  0mm WeatherDisplay:10.37 W/m2 CLR
17:57 51.2 °F /  10.7 °C 23.0 °F /  -5 °C 29.61in /  1002.6hPa SSW 4.6mph /  7.4km/h 4.6mph /  7.4km/h 33% 0.00in /  0mm WeatherDisplay:10.37 W/m2 CLR
18:02 50.9 °F /  10.5 °C 22.8 °F /  -5.1 °C 29.59in /  1001.9hPa West 6.9mph /  11.1km/h 6.9mph /  11.1km/h 33% 0.00in /  0mm WeatherDisplay:10.37 W/m2 CLR
18:07 51.0 °F /  10.6 °C 22.1 °F /  -5.5 °C 29.59in /  1001.9hPa West 11.5mph /  18.5km/h 11.5mph /  18.5km/h 32% 0.00in /  0mm WeatherDisplay:10.37 W/m2 CLR
18:12 51.1 °F /  10.6 °C 23.0 °F /  -5 °C 29.59in /  1001.9hPa WSW 6.9mph /  11.1km/h 6.9mph /  11.1km/h 33% 0.00in /  0mm WeatherDisplay:10.37 W/m2 CLR
18:17 50.9 °F /  10.5 °C 23.5 °F /  -4.7 °C 29.59in /  1001.9hPa West 3.5mph /  5.6km/h 3.5mph /  5.6km/h 34% 0.00in /  0mm WeatherDisplay:10.37 W/m2 CLR
18:22 50.3 °F /  10.2 °C 23.0 °F /  -5 °C 29.60in /  1002.3hPa West 2.3mph /  3.7km/h 2.3mph /  3.7km/h 34% 0.00in /  0mm WeatherDisplay:10.37 W/m2 CLR
18:27 49.6 °F /  9.8 °C 23.0 °F /  -5 °C 29.60in /  1002.3hPa West 5.8mph /  9.3km/h 5.8mph /  9.3km/h 35% 0.00in /  0mm WeatherDisplay:10.37 W/m2 CLR
18:32 49.0 °F /  9.4 °C 23.2 °F /  -4.9 °C 29.60in /  1002.3hPa West 5.8mph /  9.3km/h 5.8mph /  9.3km/h 36% 0.00in /  0mm WeatherDisplay:10.37 W/m2 CLR
18:37 48.5 °F /  9.2 °C 23.4 °F /  -4.8 °C 29.60in /  1002.3hPa West 4.6mph /  7.4km/h 4.6mph /  7.4km/h 37% 0.00in /  0mm WeatherDisplay:10.37 W/m2 CLR
18:42 48.2 °F /  9 °C 23.1 °F /  -4.9 °C 29.61in /  1002.6hPa West 2.3mph /  3.7km/h 2.3mph /  3.7km/h 37% 0.00in /  0mm WeatherDisplay:10.37 W/m2 CLR
18:47 47.8 °F /  8.8 °C 23.4 °F /  -4.8 °C 29.61in /  1002.6hPa West 2.3mph /  3.7km/h 2.3mph /  3.7km/h 38% 0.00in /  0mm WeatherDisplay:10.37 W/m2 CLR
18:52 47.6 °F /  8.7 °C 23.2 °F /  -4.9 °C 29.62in /  1002.9hPa SSE 4.0mph /  6.4km/h 4.0mph /  6.4km/h 38% 0.00in /  0mm WeatherDisplay:10.37 W/m2 CLR
18:57 47.4 °F /  8.6 °C 22.4 °F /  -5.3 °C 29.62in /  1002.9hPa WNW 4.0mph /  6.4km/h 4.0mph /  6.4km/h 37% 0.00in /  0mm WeatherDisplay:10.37 W/m2 CLR
19:02 47.3 °F /  8.5 °C 22.3 °F /  -5.4 °C 29.62in /  1002.9hPa West 3.5mph /  5.6km/h 3.5mph /  5.6km/h 37% 0.00in /  0mm WeatherDisplay:10.37 W/m2 CLR
19:07 47.2 °F /  8.4 °C 22.2 °F /  -5.4 °C 29.62in /  1002.9hPa Calm     37% 0.00in /  0mm WeatherDisplay:10.37 W/m2 CLR
19:12 46.9 °F /  8.3 °C 23.2 °F /  -4.9 °C 29.62in /  1002.9hPa West 2.3mph /  3.7km/h 2.3mph /  3.7km/h 39% 0.00in /  0mm WeatherDisplay:10.37 W/m2 CLR
19:17 46.4 °F /  8 °C 22.8 °F /  -5.1 °C 29.62in /  1002.9hPa Calm     39% 0.00in /  0mm WeatherDisplay:10.37 W/m2 CLR
19:22 45.7 °F /  7.6 °C 22.1 °F /  -5.5 °C 29.62in /  1002.9hPa West 1.0mph /  1.6km/h 1.0mph /  1.6km/h 39% 0.00in /  0mm WeatherDisplay:10.37 W/m2 CLR
19:27 45.4 °F /  7.4 °C 22.5 °F /  -5.3 °C 29.63in /  1003.3hPa Calm     40% 0.00in /  0mm WeatherDisplay:10.37 W/m2 CLR
19:32 44.9 °F /  7.2 °C 23.2 °F /  -4.9 °C 29.63in /  1003.3hPa Calm     42% 0.00in /  0mm WeatherDisplay:10.37 W/m2 CLR
19:37 44.3 °F /  6.8 °C 22.1 °F /  -5.5 °C 29.63in /  1003.3hPa Calm     41% 0.00in /  0mm WeatherDisplay:10.37 W/m2 CLR
19:42 44.0 °F /  6.7 °C 21.8 °F /  -5.7 °C 29.63in /  1003.3hPa West 1.2mph /  1.9km/h   41% 0.00in /  0mm WeatherDisplay:10.37 W/m2 CLR
19:47 43.7 °F /  6.5 °C 22.6 °F /  -5.2 °C 29.64in /  1003.6hPa West 1.2mph /  1.9km/h 1.2mph /  1.9km/h 43% 0.00in /  0mm WeatherDisplay:10.37 W/m2 CLR
19:52 43.3 °F /  6.3 °C 22.3 °F /  -5.4 °C 29.65in /  1003.9hPa West 1.2mph /  1.9km/h 1.2mph /  1.9km/h 43% 0.00in /  0mm WeatherDisplay:10.37 W/m2 CLR
19:57 43.0 °F /  6.1 °C 22.0 °F /  -5.6 °C 29.65in /  1003.9hPa West 1.2mph /  1.9km/h   43% 0.00in /  0mm WeatherDisplay:10.37 W/m2 CLR
20:02 42.9 °F /  6.1 °C 21.4 °F /  -5.9 °C 29.64in /  1003.6hPa Calm     42% 0.00in /  0mm WeatherDisplay:10.37 W/m2 CLR
20:07 43.0 °F /  6.1 °C 21.4 °F /  -5.9 °C 29.64in /  1003.6hPa West 1.2mph /  1.9km/h   42% 0.00in /  0mm WeatherDisplay:10.37 W/m2 CLR
20:12 43.5 °F /  6.4 °C 21.9 °F /  -5.6 °C 29.64in /  1003.6hPa Calm     42% 0.00in /  0mm WeatherDisplay:10.37 W/m2 CLR
20:17 44.0 °F /  6.7 °C 21.8 °F /  -5.7 °C 29.64in /  1003.6hPa West 2.3mph /  3.7km/h 2.3mph /  3.7km/h 41% 0.00in /  0mm WeatherDisplay:10.37 W/m2 CLR
20:22 44.6 °F /  7 °C 21.7 °F /  -5.7 °C 29.63in /  1003.3hPa West 1.2mph /  1.9km/h 1.2mph /  1.9km/h 40% 0.00in /  0mm WeatherDisplay:10.37 W/m2 CLR
20:27 45.0 °F /  7.2 °C 22.1 °F /  -5.5 °C 29.63in /  1003.3hPa West 3.5mph /  5.6km/h 3.5mph /  5.6km/h 40% 0.00in /  0mm WeatherDisplay:10.37 W/m2 CLR
20:32 45.2 °F /  7.3 °C 23.4 °F /  -4.8 °C 29.63in /  1003.3hPa West 1.2mph /  1.9km/h 1.2mph /  1.9km/h 42% 0.00in /  0mm WeatherDisplay:10.37 W/m2 CLR
20:37 45.2 °F /  7.3 °C 23.4 °F /  -4.8 °C 29.63in /  1003.3hPa West 2.3mph /  3.7km/h 2.3mph /  3.7km/h 42% 0.00in /  0mm WeatherDisplay:10.37 W/m2 CLR
20:42 45.2 °F /  7.3 °C 24.6 °F /  -4.1 °C 29.63in /  1003.3hPa West 4.0mph /  6.4km/h 4.0mph /  6.4km/h 44% 0.00in /  0mm WeatherDisplay:10.37 W/m2 CLR
20:47 45.1 °F /  7.3 °C 24.5 °F /  -4.2 °C 29.63in /  1003.3hPa WSW 4.0mph /  6.4km/h 4.0mph /  6.4km/h 44% 0.00in /  0mm WeatherDisplay:10.37 W/m2 CLR
20:52 45.0 °F /  7.2 °C 24.9 °F /  -3.9 °C 29.63in /  1003.3hPa West 3.5mph /  5.6km/h 3.5mph /  5.6km/h 45% 0.00in /  0mm WeatherDisplay:10.37 W/m2 CLR
20:57 45.1 °F /  7.3 °C 25.0 °F /  -3.9 °C 29.63in /  1003.3hPa West 3.5mph /  5.6km/h 3.5mph /  5.6km/h 45% 0.00in /  0mm WeatherDisplay:10.37 W/m2 CLR
21:02 45.2 °F /  7.3 °C 25.6 °F /  -3.6 °C 29.61in /  1002.6hPa West 2.3mph /  3.7km/h 2.3mph /  3.7km/h 46% 0.00in /  0mm WeatherDisplay:10.37 W/m2 CLR
21:07 45.2 °F /  7.3 °C 25.6 °F /  -3.6 °C 29.62in /  1002.9hPa WNW 1.2mph /  1.9km/h 1.2mph /  1.9km/h 46% 0.00in /  0mm WeatherDisplay:10.37 W/m2 CLR
21:12 45.3 °F /  7.4 °C 25.7 °F /  -3.5 °C 29.62in /  1002.9hPa West 3.5mph /  5.6km/h 3.5mph /  5.6km/h 46% 0.00in /  0mm WeatherDisplay:10.37 W/m2 CLR
21:17 45.4 °F /  7.4 °C 25.8 °F /  -3.4 °C 29.61in /  1002.6hPa West 2.3mph /  3.7km/h 2.3mph /  3.7km/h 46% 0.00in /  0mm WeatherDisplay:10.37 W/m2 CLR
21:22 45.4 °F /  7.4 °C 25.8 °F /  -3.4 °C 29.61in /  1002.6hPa WNW 2.0mph /  3.2km/h 2.0mph /  3.2km/h 46% 0.00in /  0mm WeatherDisplay:10.37 W/m2 CLR
21:27 45.5 °F /  7.5 °C 25.9 °F /  -3.4 °C 29.60in /  1002.3hPa West 1.2mph /  1.9km/h 1.2mph /  1.9km/h 46% 0.00in /  0mm WeatherDisplay:10.37 W/m2 CLR
21:32 45.4 °F /  7.4 °C 25.8 °F /  -3.4 °C 29.60in /  1002.3hPa West 4.6mph /  7.4km/h 4.6mph /  7.4km/h 46% 0.00in /  0mm WeatherDisplay:10.37 W/m2 CLR
21:37 45.3 °F /  7.4 °C 26.2 °F /  -3.2 °C 29.62in /  1002.9hPa WNW 2.3mph /  3.7km/h 2.3mph /  3.7km/h 47% 0.00in /  0mm WeatherDisplay:10.37 W/m2 CLR
21:42 45.1 °F /  7.3 °C 26.1 °F /  -3.3 °C 29.61in /  1002.6hPa West 2.3mph /  3.7km/h 2.3mph /  3.7km/h 47% 0.00in /  0mm WeatherDisplay:10.37 W/m2 CLR
21:47 45.0 °F /  7.2 °C 26.5 °F /  -3.1 °C 29.61in /  1002.6hPa West 3.0mph /  4.8km/h 3.0mph /  4.8km/h 48% 0.00in /  0mm WeatherDisplay:10.37 W/m2 CLR
21:52 44.7 °F /  7.1 °C 25.7 °F /  -3.5 °C 29.61in /  1002.6hPa West 3.5mph /  5.6km/h 3.5mph /  5.6km/h 47% 0.00in /  0mm WeatherDisplay:10.37 W/m2 CLR
21:57 44.6 °F /  7 °C 25.6 °F /  -3.6 °C 29.61in /  1002.6hPa West 3.5mph /  5.6km/h 3.5mph /  5.6km/h 47% 0.00in /  0mm WeatherDisplay:10.37 W/m2 CLR
22:02 44.9 °F /  7.2 °C 25.3 °F /  -3.7 °C 29.60in /  1002.3hPa WNW 5.8mph /  9.3km/h 5.8mph /  9.3km/h 46% 0.00in /  0mm WeatherDisplay:10.37 W/m2 CLR
22:07 45.4 °F /  7.4 °C 25.3 °F /  -3.7 °C 29.60in /  1002.3hPa SW 4.6mph /  7.4km/h 4.6mph /  7.4km/h 45% 0.00in /  0mm WeatherDisplay:10.37 W/m2 CLR
22:12 46.2 °F /  7.9 °C 25.5 °F /  -3.6 °C 29.60in /  1002.3hPa NW 3.5mph /  5.6km/h 3.5mph /  5.6km/h 44% 0.00in /  0mm WeatherDisplay:10.37 W/m2 CLR
22:17 46.6 °F /  8.1 °C 25.3 °F /  -3.7 °C 29.58in /  1001.6hPa WNW 3.5mph /  5.6km/h 3.5mph /  5.6km/h 43% 0.00in /  0mm WeatherDisplay:10.37 W/m2 CLR
22:22 46.8 °F /  8.2 °C 25.5 °F /  -3.6 °C 29.58in /  1001.6hPa WNW 5.0mph /  8km/h 5.0mph /  8km/h 43% 0.00in /  0mm WeatherDisplay:10.37 W/m2 CLR
22:27 46.7 °F /  8.2 °C 25.4 °F /  -3.7 °C 29.57in /  1001.2hPa West 2.3mph /  3.7km/h 2.3mph /  3.7km/h 43% 0.00in /  0mm WeatherDisplay:10.37 W/m2 CLR
22:32 46.3 °F /  7.9 °C 25.6 °F /  -3.6 °C 29.58in /  1001.6hPa West 4.6mph /  7.4km/h 4.6mph /  7.4km/h 44% 0.00in /  0mm WeatherDisplay:10.37 W/m2 CLR
22:37 45.9 °F /  7.7 °C 25.7 °F /  -3.5 °C 29.58in /  1001.6hPa West 1.2mph /  1.9km/h 1.2mph /  1.9km/h 45% 0.00in /  0mm WeatherDisplay:10.37 W/m2 CLR
22:42 45.3 °F /  7.4 °C 25.2 °F /  -3.8 °C 29.58in /  1001.6hPa West 3.5mph /  5.6km/h 3.5mph /  5.6km/h 45% 0.00in /  0mm WeatherDisplay:10.37 W/m2 CLR
22:47 44.8 °F /  7.1 °C 25.3 °F /  -3.7 °C 29.58in /  1001.6hPa West 3.5mph /  5.6km/h 3.5mph /  5.6km/h 46% 0.00in /  0mm WeatherDisplay:10.37 W/m2 CLR
22:53 44.3 °F /  6.8 °C 24.8 °F /  -4 °C 29.59in /  1001.9hPa WSW 2.3mph /  3.7km/h 2.3mph /  3.7km/h 46% 0.00in /  0mm WeatherDisplay:10.37 W/m2 CLR
22:58 44.0 °F /  6.7 °C 24.5 °F /  -4.2 °C 29.59in /  1001.9hPa WSW 2.0mph /  3.2km/h 2.0mph /  3.2km/h 46% 0.00in /  0mm WeatherDisplay:10.37 W/m2 CLR
23:03 43.7 °F /  6.5 °C 23.7 °F /  -4.6 °C 29.57in /  1001.2hPa WSW 2.3mph /  3.7km/h 2.3mph /  3.7km/h 45% 0.00in /  0mm WeatherDisplay:10.37 W/m2 CLR
23:08 43.7 °F /  6.5 °C 23.7 °F /  -4.6 °C 29.58in /  1001.6hPa West 2.0mph /  3.2km/h 2.0mph /  3.2km/h 45% 0.00in /  0mm WeatherDisplay:10.37 W/m2 CLR
23:13 43.8 °F /  6.6 °C 23.3 °F /  -4.8 °C 29.58in /  1001.6hPa SSW 2.3mph /  3.7km/h 2.3mph /  3.7km/h 44% 0.00in /  0mm WeatherDisplay:10.37 W/m2 CLR
23:18 44.0 °F /  6.7 °C 23.5 °F /  -4.7 °C 29.58in /  1001.6hPa West 2.3mph /  3.7km/h 2.3mph /  3.7km/h 44% 0.00in /  0mm WeatherDisplay:10.37 W/m2 CLR
23:23 44.2 °F /  6.8 °C 23.6 °F /  -4.7 °C 29.58in /  1001.6hPa SSW 2.3mph /  3.7km/h 2.3mph /  3.7km/h 44% 0.00in /  0mm WeatherDisplay:10.37 W/m2 CLR
23:28 44.3 °F /  6.8 °C 23.2 °F /  -4.9 °C 29.58in /  1001.6hPa WSW 3.5mph /  5.6km/h 3.5mph /  5.6km/h 43% 0.00in /  0mm WeatherDisplay:10.37 W/m2 CLR
23:33 44.4 °F /  6.9 °C 23.8 °F /  -4.6 °C 29.58in /  1001.6hPa West 1.2mph /  1.9km/h 1.2mph /  1.9km/h 44% 0.00in /  0mm WeatherDisplay:10.37 W/m2 CLR
23:38 44.2 °F /  6.8 °C 23.6 °F /  -4.7 °C 29.57in /  1001.2hPa West 3.5mph /  5.6km/h   44% 0.00in /  0mm WeatherDisplay:10.37 W/m2 CLR
23:43 44.1 °F /  6.7 °C 23.6 °F /  -4.7 °C 29.58in /  1001.6hPa WSW 5.8mph /  9.3km/h 5.8mph /  9.3km/h 44% 0.00in /  0mm WeatherDisplay:10.37 W/m2 CLR
23:48 44.0 °F /  6.7 °C 22.4 °F /  -5.3 °C 29.57in /  1001.2hPa WNW 5.8mph /  9.3km/h 5.8mph /  9.3km/h 42% 0.00in /  0mm WeatherDisplay:10.37 W/m2 CLR
23:53 45.0 °F /  7.2 °C 23.8 °F /  -4.6 °C 29.56in /  1000.9hPa WSW 3.5mph /  5.6km/h 3.5mph /  5.6km/h 43% 0.00in /  0mm WeatherDisplay:10.37 W/m2 CLR
23:58 45.2 °F /  7.3 °C 23.4 °F /  -4.8 °C 29.56in /  1000.9hPa West 3.5mph /  5.6km/h 3.5mph /  5.6km/h 42% 0.00in /  0mm WeatherDisplay:10.37 W/m2 CLR
Windsor Co Weather
Compliments of Weather Underground - 3 mb